createdAt,value
2018-06-19T00:01:50.730Z,13.20
2018-06-19T00:05:54.248Z,13.37
2018-06-19T00:09:57.633Z,15.43
2018-06-19T00:14:00.741Z,20.17
2018-06-19T00:18:07.951Z,16.43
2018-06-19T00:22:11.299Z,16.77
2018-06-19T00:26:14.664Z,14.90
2018-06-19T00:30:18.040Z,15.57
2018-06-19T00:34:21.398Z,16.07
2018-06-19T00:38:24.760Z,18.67
2018-06-19T00:42:28.112Z,21.53
2018-06-19T00:46:32.049Z,18.97
2018-06-19T00:50:35.390Z,17.77
2018-06-19T00:54:38.743Z,21.93
2018-06-19T00:58:42.398Z,19.20
2018-06-19T01:02:45.764Z,20.27
2018-06-19T01:06:49.122Z,18.80
2018-06-19T01:10:52.464Z,18.47
2018-06-19T01:14:55.816Z,20.03
2018-06-19T01:18:59.198Z,20.10
2018-06-19T01:23:02.571Z,21.73
2018-06-19T01:27:05.914Z,20.90
2018-06-19T01:31:09.262Z,20.27
2018-06-19T01:35:12.630Z,18.90
2018-06-19T01:39:15.988Z,20.77
2018-06-19T01:43:19.346Z,23.57
2018-06-19T01:47:22.744Z,20.97
2018-06-19T01:51:26.102Z,17.33
2018-06-19T01:55:29.463Z,16.90
2018-06-19T01:59:32.819Z,16.93
2018-06-19T02:03:36.160Z,17.67
2018-06-19T02:07:39.479Z,18.20
2018-06-19T02:11:42.551Z,17.07
2018-06-19T02:15:45.943Z,18.07
2018-06-19T02:19:49.335Z,16.77
2018-06-19T02:23:53.533Z,17.53
2018-06-19T02:27:56.865Z,16.17
2018-06-19T02:32:00.223Z,15.90
2018-06-19T02:36:03.583Z,16.00
2018-06-19T02:40:07.020Z,15.90
2018-06-19T02:44:10.388Z,16.37
2018-06-19T02:48:13.727Z,15.93
2018-06-19T02:52:17.082Z,15.97
2018-06-19T02:56:20.447Z,17.13
2018-06-19T03:00:23.847Z,20.40
2018-06-19T03:04:27.175Z,19.00
2018-06-19T03:08:30.525Z,16.53
2018-06-19T03:12:33.885Z,17.63
2018-06-19T03:16:37.289Z,17.53
2018-06-19T03:20:40.659Z,17.27
2018-06-19T03:24:44.008Z,17.10
2018-06-19T03:28:47.351Z,18.17
2018-06-19T03:32:50.691Z,15.60
2018-06-19T03:36:54.059Z,15.03
2018-06-19T03:40:57.411Z,14.80
2018-06-19T03:45:00.766Z,13.00
2018-06-19T03:49:04.562Z,11.73
2018-06-19T03:53:07.923Z,13.87
2018-06-19T03:57:11.276Z,11.27
2018-06-19T04:01:14.657Z,11.17
2018-06-19T04:05:18.019Z,12.27
2018-06-19T04:09:21.372Z,11.43
2018-06-19T04:13:24.728Z,10.63
2018-06-19T04:17:28.618Z,9.20
2018-06-19T04:21:31.961Z,8.50
2018-06-19T04:25:35.336Z,10.00
2018-06-19T04:29:38.660Z,8.97
2018-06-19T04:33:42.095Z,8.73
2018-06-19T04:37:45.450Z,7.23
2018-06-19T04:41:48.846Z,8.90
2018-06-19T04:45:52.207Z,7.50
2018-06-19T04:49:55.547Z,8.43
2018-06-19T04:53:59.040Z,6.40
2018-06-19T04:58:02.404Z,6.43
2018-06-19T05:02:05.755Z,5.57
2018-06-19T05:06:09.097Z,9.93
2018-06-19T05:10:12.451Z,6.67
2018-06-19T05:14:15.822Z,7.63
2018-06-19T05:18:19.266Z,7.83
2018-06-19T05:22:22.607Z,7.73
2018-06-19T05:26:25.947Z,5.60
2018-06-19T05:30:29.360Z,9.03
2018-06-19T05:34:32.628Z,9.17
2018-06-19T05:38:35.953Z,11.17
2018-06-19T05:42:39.292Z,7.00
2018-06-19T05:46:42.622Z,8.60
2018-06-19T05:50:46.149Z,6.73
2018-06-19T05:54:49.521Z,14.33
2018-06-19T05:58:53.096Z,10.83
2018-06-19T06:02:56.424Z,9.53
2018-06-19T06:06:59.753Z,8.60
2018-06-19T06:11:03.145Z,7.57
2018-06-19T06:15:06.458Z,10.77
2018-06-19T06:19:09.803Z,8.63
2018-06-19T06:23:13.146Z,13.97
2018-06-19T06:27:16.492Z,10.60
2018-06-19T06:31:19.871Z,6.83
2018-06-19T06:35:23.171Z,8.67
2018-06-19T06:39:26.514Z,12.47
2018-06-19T06:43:29.936Z,9.90
2018-06-19T06:47:33.301Z,14.63
2018-06-19T06:51:36.667Z,12.47
2018-06-19T06:55:40.012Z,10.87
2018-06-19T06:59:43.372Z,8.83
2018-06-19T07:03:46.735Z,10.43
2018-06-19T07:07:50.068Z,10.90
2018-06-19T07:11:53.467Z,9.57
2018-06-19T07:15:56.831Z,9.27
2018-06-19T07:20:00.209Z,10.40
2018-06-19T07:24:03.564Z,12.60
2018-06-19T07:28:06.939Z,10.70
2018-06-19T07:32:10.312Z,8.53
2018-06-19T07:36:13.706Z,13.97
2018-06-19T07:40:17.052Z,9.13
2018-06-19T07:44:20.420Z,15.70
2018-06-19T07:48:23.782Z,8.87
2018-06-19T07:52:27.106Z,9.10
2018-06-19T07:56:30.451Z,14.23
2018-06-19T08:00:33.859Z,10.30
2018-06-19T08:04:37.216Z,14.37
2018-06-19T08:08:40.570Z,10.53
2018-06-19T08:12:43.900Z,10.77
2018-06-19T08:16:47.283Z,12.33
2018-06-19T08:20:50.656Z,13.40
2018-06-19T08:24:54.167Z,17.47
2018-06-19T08:28:57.507Z,13.50
2018-06-19T08:33:00.582Z,12.17
2018-06-19T08:37:03.933Z,13.53
2018-06-19T08:41:07.287Z,13.93
2018-06-19T08:45:10.632Z,15.83
2018-06-19T08:49:14.002Z,13.30
2018-06-19T08:53:17.345Z,16.23
2018-06-19T08:57:20.721Z,16.77
2018-06-19T09:01:24.132Z,14.40
2018-06-19T09:05:27.545Z,13.97
2018-06-19T09:09:30.891Z,15.43
2018-06-19T09:13:34.300Z,16.73
2018-06-19T09:17:37.668Z,16.80
2018-06-19T09:21:41.029Z,13.03
2018-06-19T09:25:44.378Z,20.03
2018-06-19T09:29:47.743Z,18.23
2018-06-19T09:33:51.102Z,20.90
2018-06-19T09:37:54.491Z,20.57
2018-06-19T09:41:57.840Z,17.90
2018-06-19T09:46:01.297Z,21.33
2018-06-19T09:50:04.974Z,20.87
2018-06-19T09:54:08.304Z,18.50
2018-06-19T09:58:11.392Z,19.30
2018-06-19T10:02:14.798Z,18.63
2018-06-19T10:06:18.223Z,19.07
2018-06-19T10:10:21.592Z,15.37
2018-06-19T10:14:24.906Z,17.90
2018-06-19T10:18:28.267Z,17.00
2018-06-19T10:22:31.607Z,17.27
2018-06-19T10:26:35.028Z,23.73
2018-06-19T10:30:38.399Z,22.00
2018-06-19T10:34:41.712Z,16.50
2018-06-19T10:38:45.044Z,20.20
2018-06-19T10:42:48.399Z,18.03
2018-06-19T10:46:51.723Z,18.97
2018-06-19T10:50:55.063Z,20.83
2018-06-19T10:54:58.481Z,22.60
2018-06-19T10:59:01.933Z,22.90
2018-06-19T11:03:05.279Z,25.07
2018-06-19T11:07:08.713Z,21.47
2018-06-19T11:11:12.127Z,22.67
2018-06-19T11:15:15.524Z,50.90
2018-06-19T11:19:19.054Z,41.03
2018-06-19T11:23:22.403Z,31.03
2018-06-19T11:27:25.832Z,20.67
2018-06-19T11:31:29.203Z,26.20
2018-06-19T11:35:32.543Z,19.53
2018-06-19T11:39:35.907Z,21.30
2018-06-19T11:43:39.302Z,19.27
2018-06-19T11:47:42.820Z,18.17
2018-06-19T11:51:46.219Z,18.33
2018-06-19T11:55:49.558Z,28.67
2018-06-19T11:59:52.919Z,20.67
2018-06-19T12:03:56.276Z,21.97
2018-06-19T12:07:59.799Z,24.50
2018-06-19T12:12:03.147Z,21.13
2018-06-19T12:16:06.504Z,20.00
2018-06-19T12:20:09.964Z,23.77
2018-06-19T12:24:13.300Z,20.93
2018-06-19T12:28:16.826Z,24.77
2018-06-19T12:32:20.159Z,21.03
2018-06-19T12:36:23.548Z,20.43
2018-06-19T12:40:26.883Z,22.37
2018-06-19T12:44:30.212Z,19.30
2018-06-19T12:48:33.571Z,26.53
2018-06-19T12:52:48.335Z,21.10
2018-06-19T12:56:51.657Z,21.87
2018-06-19T13:00:55.012Z,21.60
2018-06-19T13:05:09.846Z,20.50
2018-06-19T13:09:13.171Z,19.93
2018-06-19T13:13:29.123Z,22.53
2018-06-19T13:17:43.723Z,17.27
2018-06-19T13:21:46.822Z,16.77
2018-06-19T13:25:50.604Z,16.00
2018-06-19T13:30:07.743Z,15.70
2018-06-19T13:34:11.078Z,12.77
2018-06-19T13:38:14.403Z,13.60
2018-06-19T13:42:30.650Z,15.37
2018-06-19T13:46:33.980Z,14.27
2018-06-19T13:50:37.336Z,14.73
2018-06-19T13:54:40.687Z,13.70
2018-06-19T13:58:44.031Z,15.03
2018-06-19T14:02:47.410Z,15.80
2018-06-19T14:06:50.747Z,16.47
2018-06-19T14:11:05.379Z,16.73
2018-06-19T14:15:08.743Z,16.30
2018-06-19T14:19:12.125Z,16.10
2018-06-19T14:23:15.568Z,16.07
2018-06-19T14:27:18.905Z,16.00
2018-06-19T14:31:22.364Z,16.30
2018-06-19T14:35:25.769Z,16.53
2018-06-19T14:39:29.066Z,16.23
2018-06-19T14:43:32.483Z,18.23
2018-06-19T14:47:35.856Z,16.83
2018-06-19T14:51:39.208Z,18.87
2018-06-19T14:55:42.547Z,16.27
2018-06-19T14:59:46.109Z,17.57
2018-06-19T15:03:49.484Z,20.87
2018-06-19T15:07:54.052Z,21.93
2018-06-19T15:11:57.422Z,20.77
2018-06-19T15:16:00.746Z,16.63
2018-06-19T15:20:03.847Z,17.83
2018-06-19T15:24:07.197Z,19.60
2018-06-19T15:28:10.538Z,18.23
2018-06-19T15:32:13.867Z,17.00
2018-06-19T15:36:17.206Z,16.77
2018-06-19T15:40:20.603Z,21.20
2018-06-19T15:44:24.140Z,21.53
2018-06-19T15:48:27.551Z,21.70
2018-06-19T15:52:30.916Z,20.23
2018-06-19T15:56:34.263Z,18.33
2018-06-19T16:00:37.670Z,23.40
2018-06-19T16:04:41.038Z,20.27
2018-06-19T16:08:44.387Z,20.50
2018-06-19T16:12:47.788Z,19.93
2018-06-19T16:16:51.155Z,21.47
2018-06-19T16:20:54.492Z,18.00
2018-06-19T16:24:57.836Z,19.47
2018-06-19T16:29:01.184Z,24.30
2018-06-19T16:33:04.536Z,22.43
2018-06-19T16:37:07.876Z,19.90
2018-06-19T16:41:11.208Z,24.43
2018-06-19T16:45:14.612Z,23.10
2018-06-19T16:49:18.009Z,26.23
2018-06-19T16:53:21.627Z,27.27
2018-06-19T16:57:25.031Z,29.27
2018-06-19T17:01:28.458Z,29.37
2018-06-19T17:05:31.783Z,25.03
2018-06-19T17:09:35.201Z,29.03
2018-06-19T17:13:38.567Z,25.80
2018-06-19T17:17:42.109Z,29.23
2018-06-19T17:21:45.675Z,27.77
2018-06-19T17:25:49.118Z,28.23
2018-06-19T17:29:52.504Z,25.47
2018-06-19T17:33:56.056Z,27.77
2018-06-19T17:37:59.380Z,23.60
2018-06-19T17:42:03.346Z,27.20
2018-06-19T17:46:07.979Z,28.97
2018-06-19T17:50:12.130Z,24.97
2018-06-19T17:54:17.036Z,22.43
2018-06-19T17:58:21.015Z,25.50
2018-06-19T18:02:25.303Z,23.17
2018-06-19T18:06:29.245Z,23.13
2018-06-19T18:10:34.485Z,19.90
2018-06-19T18:14:38.267Z,19.73
2018-06-19T18:18:42.712Z,23.17
2018-06-19T18:22:46.667Z,24.80
2018-06-19T18:26:50.471Z,19.60
2018-06-19T18:30:55.312Z,20.80
2018-06-19T18:34:59.429Z,23.50
2018-06-19T18:39:02.928Z,21.70
2018-06-19T18:43:06.362Z,23.57
2018-06-19T18:47:09.727Z,21.27
2018-06-19T18:51:13.195Z,20.20
2018-06-19T18:55:16.515Z,20.80
2018-06-19T18:59:19.852Z,21.20
2018-06-19T19:03:23.607Z,21.73
2018-06-19T19:07:33.514Z,22.47
2018-06-19T19:11:37.304Z,19.77
2018-06-19T19:15:46.059Z,21.73
2018-06-19T19:19:50.415Z,20.93
2018-06-19T19:23:54.170Z,21.90
2018-06-19T19:28:05.318Z,24.90
2018-06-19T19:32:09.428Z,23.60
2018-06-19T19:36:18.218Z,22.43
2018-06-19T19:40:22.047Z,19.60
2018-06-19T19:44:25.388Z,18.83
2018-06-19T19:48:35.091Z,20.97
2018-06-19T19:52:38.916Z,19.33
2018-06-19T19:56:48.413Z,22.47
2018-06-19T20:00:51.963Z,23.10
2018-06-19T20:04:56.432Z,21.37
2018-06-19T20:09:06.943Z,21.53
2018-06-19T20:13:10.453Z,25.17
2018-06-19T20:17:13.915Z,19.90
2018-06-19T20:21:17.761Z,23.90
2018-06-19T20:25:21.555Z,23.07
2018-06-19T20:29:25.464Z,25.60
2018-06-19T20:33:30.514Z,23.73
2018-06-19T20:37:33.957Z,28.40
2018-06-19T20:41:37.566Z,24.33
2018-06-19T20:45:41.746Z,21.23
2018-06-19T20:49:46.565Z,23.67
2018-06-19T20:53:49.755Z,20.33
2018-06-19T20:57:53.563Z,19.20
2018-06-19T21:01:56.938Z,20.57
2018-06-19T21:06:00.781Z,24.27
2018-06-19T21:10:04.206Z,19.90
2018-06-19T21:14:07.596Z,21.27
2018-06-19T21:18:11.090Z,18.50
2018-06-19T21:22:14.970Z,22.30
2018-06-19T21:26:18.355Z,21.27
2018-06-19T21:30:23.584Z,18.13
2018-06-19T21:34:26.988Z,20.93
2018-06-19T21:38:30.443Z,20.67
2018-06-19T21:42:33.840Z,21.70
2018-06-19T21:46:37.192Z,19.27
2018-06-19T21:50:40.615Z,20.73
2018-06-19T21:54:44.045Z,19.83
2018-06-19T21:58:47.380Z,22.00
2018-06-19T22:02:50.834Z,20.50
2018-06-19T22:06:55.899Z,23.02
2018-06-19T22:10:59.320Z,22.10
2018-06-19T22:15:02.672Z,24.23
2018-06-19T22:19:06.078Z,23.37
2018-06-19T22:23:09.444Z,22.60
2018-06-19T22:27:12.819Z,23.33
2018-06-19T22:31:16.197Z,25.87
2018-06-19T22:35:19.543Z,23.73
2018-06-19T22:39:22.875Z,23.93
2018-06-19T22:43:26.248Z,23.47
2018-06-19T22:47:29.639Z,25.90
2018-06-19T22:51:33.081Z,23.43
2018-06-19T22:55:36.435Z,23.10
2018-06-19T22:59:39.779Z,23.87
2018-06-19T23:03:43.120Z,27.80
2018-06-19T23:07:46.471Z,27.30
2018-06-19T23:11:49.927Z,27.87
2018-06-19T23:15:53.266Z,22.73
2018-06-19T23:19:56.607Z,28.87
2018-06-19T23:23:59.963Z,24.53
2018-06-19T23:28:03.324Z,23.77
2018-06-19T23:32:06.949Z,23.60
2018-06-19T23:36:10.327Z,25.43
2018-06-19T23:40:13.703Z,24.43
2018-06-19T23:44:17.058Z,27.30
2018-06-19T23:48:20.411Z,22.80
2018-06-19T23:52:23.756Z,25.87
2018-06-19T23:56:27.111Z,23.60
